createdAt,value
2023-06-11T00:00:32.448Z,23.60
2023-06-11T00:02:59.031Z,23.70
2023-06-11T00:05:25.534Z,23.70
2023-06-11T00:07:51.963Z,23.70
2023-06-11T00:10:18.466Z,23.70
2023-06-11T00:12:44.906Z,23.70
2023-06-11T00:15:11.548Z,23.70
2023-06-11T00:17:38.219Z,23.60
2023-06-11T00:20:04.710Z,23.60
2023-06-11T00:22:31.185Z,23.50
2023-06-11T00:24:57.673Z,23.50
2023-06-11T00:27:24.144Z,23.50
2023-06-11T00:29:50.637Z,23.50
2023-06-11T00:32:17.106Z,23.40
2023-06-11T00:34:43.598Z,23.40
2023-06-11T00:37:10.090Z,23.40
2023-06-11T00:39:36.635Z,23.40
2023-06-11T00:42:03.144Z,23.30
2023-06-11T00:44:29.580Z,23.40
2023-06-11T00:46:56.036Z,23.30
2023-06-11T00:49:22.524Z,23.30
2023-06-11T00:51:48.992Z,23.20
2023-06-11T00:54:15.418Z,23.20
2023-06-11T00:56:41.882Z,23.20
2023-06-11T00:59:08.341Z,23.20
2023-06-11T01:01:34.881Z,23.10
2023-06-11T01:04:01.533Z,23.00
2023-06-11T01:06:28.133Z,23.00
2023-06-11T01:08:54.627Z,23.00
2023-06-11T01:11:21.123Z,22.90
2023-06-11T01:13:47.582Z,22.90
2023-06-11T01:16:14.041Z,22.80
2023-06-11T01:18:40.569Z,22.80
2023-06-11T01:21:07.052Z,22.70
2023-06-11T01:23:33.561Z,22.70
2023-06-11T01:25:59.983Z,22.60
2023-06-11T01:28:26.410Z,22.60
2023-06-11T01:30:53.056Z,22.60
2023-06-11T01:33:19.595Z,22.60
2023-06-11T01:35:46.056Z,22.60
2023-06-11T01:38:12.478Z,22.50
2023-06-11T01:40:38.943Z,22.50
2023-06-11T01:43:05.432Z,22.50
2023-06-11T01:45:31.894Z,22.50
2023-06-11T01:47:58.322Z,22.50
2023-06-11T01:50:24.921Z,22.50
2023-06-11T01:52:51.398Z,22.50
2023-06-11T01:55:17.833Z,22.50
2023-06-11T01:57:44.340Z,22.50
2023-06-11T02:00:10.821Z,22.50
2023-06-11T02:02:37.339Z,22.60
2023-06-11T02:05:03.827Z,22.60
2023-06-11T02:07:30.252Z,22.60
2023-06-11T02:09:56.675Z,22.60
2023-06-11T02:12:23.108Z,22.60
2023-06-11T02:14:49.549Z,22.50
2023-06-11T02:17:15.961Z,22.50
2023-06-11T02:19:42.432Z,22.50
2023-06-11T02:22:08.911Z,22.50
2023-06-11T02:24:35.402Z,22.40
2023-06-11T02:27:01.887Z,22.50
2023-06-11T02:29:28.379Z,22.40
2023-06-11T02:31:54.901Z,22.30
2023-06-11T02:34:21.350Z,22.30
2023-06-11T02:36:47.882Z,22.30
2023-06-11T02:39:14.369Z,22.30
2023-06-11T02:41:40.904Z,22.20
2023-06-11T02:44:07.361Z,22.20
2023-06-11T02:46:33.885Z,22.10
2023-06-11T02:49:00.417Z,22.10
2023-06-11T02:51:26.886Z,22.10
2023-06-11T02:53:53.320Z,22.10
2023-06-11T02:56:19.751Z,22.10
2023-06-11T02:58:46.208Z,22.00
2023-06-11T03:01:12.701Z,22.00
2023-06-11T03:03:39.252Z,22.00
2023-06-11T03:06:05.747Z,22.00
2023-06-11T03:08:32.221Z,21.90
2023-06-11T03:10:58.691Z,21.90
2023-06-11T03:13:25.183Z,21.80
2023-06-11T03:15:51.688Z,21.80
2023-06-11T03:18:18.116Z,21.80
2023-06-11T03:20:44.553Z,21.80
2023-06-11T03:23:10.988Z,21.80
2023-06-11T03:25:37.452Z,21.80
2023-06-11T03:28:03.875Z,21.70
2023-06-11T03:30:30.357Z,21.70
2023-06-11T03:32:56.817Z,21.70
2023-06-11T03:35:23.273Z,21.70
2023-06-11T03:37:49.717Z,21.70
2023-06-11T03:40:16.189Z,21.70
2023-06-11T03:42:42.691Z,21.80
2023-06-11T03:45:09.267Z,21.70
2023-06-11T03:47:35.994Z,21.80
2023-06-11T03:50:02.542Z,21.70
2023-06-11T03:52:29.031Z,21.80
2023-06-11T03:54:55.480Z,21.80
2023-06-11T03:57:21.895Z,21.70
2023-06-11T03:59:48.323Z,21.80
2023-06-11T04:02:14.809Z,21.70
2023-06-11T04:04:41.497Z,21.70
2023-06-11T04:07:08.000Z,21.80
2023-06-11T04:09:34.425Z,21.80
2023-06-11T04:12:00.893Z,21.80
2023-06-11T04:14:27.376Z,21.80
2023-06-11T04:16:53.881Z,21.80
2023-06-11T04:19:20.426Z,21.80
2023-06-11T04:21:46.929Z,21.80
2023-06-11T04:24:13.433Z,21.80
2023-06-11T04:26:39.933Z,21.80
2023-06-11T04:29:06.455Z,21.80
2023-06-11T04:31:32.952Z,21.80
2023-06-11T04:33:59.392Z,21.90
2023-06-11T04:36:26.042Z,21.90
2023-06-11T04:38:52.589Z,21.90
2023-06-11T04:41:19.086Z,21.90
2023-06-11T04:43:45.564Z,21.80
2023-06-11T04:46:12.032Z,21.80
2023-06-11T04:48:38.536Z,21.80
2023-06-11T04:51:05.039Z,21.80
2023-06-11T04:53:31.484Z,21.80
2023-06-11T04:55:57.937Z,21.90
2023-06-11T04:58:24.373Z,21.90
2023-06-11T05:00:50.809Z,21.90
2023-06-11T05:03:17.355Z,22.00
2023-06-11T05:05:43.838Z,22.00
2023-06-11T05:08:10.362Z,22.00
2023-06-11T05:10:36.835Z,22.00
2023-06-11T05:13:03.467Z,22.00
2023-06-11T05:15:29.909Z,22.10
2023-06-11T05:17:59.304Z,22.10
2023-06-11T05:20:25.819Z,22.10
2023-06-11T05:22:52.231Z,22.30
2023-06-11T05:25:18.701Z,22.30
2023-06-11T05:27:45.235Z,22.40
2023-06-11T05:30:11.718Z,22.40
2023-06-11T05:32:38.203Z,22.50
2023-06-11T05:35:04.639Z,22.60
2023-06-11T05:37:31.066Z,22.70
2023-06-11T05:39:57.491Z,22.70
2023-06-11T05:42:23.956Z,22.70
2023-06-11T05:44:50.353Z,22.70
2023-06-11T05:47:16.851Z,22.70
2023-06-11T05:49:43.389Z,22.70
2023-06-11T05:52:09.861Z,22.80
2023-06-11T05:54:36.334Z,22.90
2023-06-11T05:57:02.816Z,22.90
2023-06-11T05:59:29.256Z,23.00
2023-06-11T06:01:55.666Z,23.00
2023-06-11T06:04:22.255Z,23.10
2023-06-11T06:06:48.759Z,23.10
2023-06-11T06:09:15.241Z,23.20
2023-06-11T06:11:41.656Z,23.20
2023-06-11T06:14:08.168Z,23.30
2023-06-11T06:16:34.658Z,23.30
2023-06-11T06:19:01.166Z,23.30
2023-06-11T06:21:27.626Z,23.40
2023-06-11T06:23:54.173Z,23.50
2023-06-11T06:26:20.712Z,23.60
2023-06-11T06:28:47.176Z,23.70
2023-06-11T06:31:13.730Z,23.70
2023-06-11T06:33:40.295Z,23.80
2023-06-11T06:36:08.786Z,23.90
2023-06-11T06:38:35.256Z,23.90
2023-06-11T06:41:01.683Z,24.00
2023-06-11T06:43:28.199Z,24.10
2023-06-11T06:45:54.661Z,24.10
2023-06-11T06:48:21.223Z,24.30
2023-06-11T06:50:47.776Z,24.40
2023-06-11T06:53:14.204Z,24.50
2023-06-11T06:55:40.662Z,24.50
2023-06-11T06:58:07.102Z,24.50
2023-06-11T07:00:33.593Z,24.70
2023-06-11T07:03:00.092Z,24.70
2023-06-11T07:05:26.609Z,24.90
2023-06-11T07:07:53.051Z,25.00
2023-06-11T07:10:19.507Z,25.10
2023-06-11T07:12:45.972Z,25.20
2023-06-11T07:15:12.418Z,25.30
2023-06-11T07:17:38.868Z,25.40
2023-06-11T07:20:05.465Z,25.60
2023-06-11T07:22:31.951Z,25.70
2023-06-11T07:24:58.437Z,25.90
2023-06-11T07:27:25.103Z,26.10
2023-06-11T07:29:51.648Z,26.40
2023-06-11T07:32:18.080Z,26.60
2023-06-11T07:34:44.488Z,26.80
2023-06-11T07:37:10.961Z,27.00
2023-06-11T07:39:37.428Z,27.20
2023-06-11T07:42:03.858Z,27.40
2023-06-11T07:44:30.317Z,27.50
2023-06-11T07:46:56.805Z,27.70
2023-06-11T07:49:23.256Z,28.10
2023-06-11T07:51:49.698Z,28.30
2023-06-11T07:54:16.160Z,28.50
2023-06-11T07:56:42.629Z,28.70
2023-06-11T07:59:09.128Z,28.90
2023-06-11T08:01:35.599Z,29.30
2023-06-11T08:04:02.043Z,29.50
2023-06-11T08:06:28.529Z,29.50
2023-06-11T08:08:54.994Z,29.60
2023-06-11T08:11:21.544Z,29.60
2023-06-11T08:13:48.077Z,29.80
2023-06-11T08:16:14.608Z,29.90
2023-06-11T08:18:41.097Z,30.20
2023-06-11T08:21:07.573Z,30.50
2023-06-11T08:23:34.046Z,30.60
2023-06-11T08:26:00.458Z,30.90
2023-06-11T08:28:26.891Z,31.00
2023-06-11T08:30:53.330Z,31.20
2023-06-11T08:33:19.983Z,31.40
2023-06-11T08:35:46.532Z,31.50
2023-06-11T08:38:12.996Z,31.60
2023-06-11T08:40:39.434Z,31.70
2023-06-11T08:43:05.884Z,31.70
2023-06-11T08:45:32.294Z,31.90
2023-06-11T08:47:58.819Z,32.10
2023-06-11T08:50:25.369Z,32.30
2023-06-11T08:52:51.806Z,32.50
2023-06-11T08:55:18.279Z,32.50
2023-06-11T08:57:44.760Z,32.50
2023-06-11T09:00:11.764Z,32.60
2023-06-11T09:02:38.478Z,32.80
2023-06-11T09:05:04.945Z,32.80
2023-06-11T09:07:31.422Z,33.00
2023-06-11T09:09:57.904Z,33.20
2023-06-11T09:12:24.405Z,33.40
2023-06-11T09:14:50.895Z,33.40
2023-06-11T09:17:17.336Z,33.40
2023-06-11T09:19:43.749Z,33.50
2023-06-11T09:22:10.219Z,33.70
2023-06-11T09:24:36.664Z,33.70
2023-06-11T09:27:03.112Z,33.70
2023-06-11T09:29:29.593Z,33.90
2023-06-11T09:31:56.130Z,34.10
2023-06-11T09:34:22.626Z,34.30
2023-06-11T09:36:49.110Z,34.40
2023-06-11T09:39:15.593Z,34.40
2023-06-11T09:41:42.098Z,34.50
2023-06-11T09:44:08.523Z,34.60
2023-06-11T09:46:35.249Z,34.80
2023-06-11T09:49:02.801Z,35.00
2023-06-11T09:51:29.293Z,35.30
2023-06-11T09:53:55.747Z,35.50
2023-06-11T09:56:22.243Z,35.90
2023-06-11T09:58:48.713Z,36.10
2023-06-11T10:01:15.199Z,36.30
2023-06-11T10:03:41.807Z,36.40
2023-06-11T10:06:08.348Z,36.20
2023-06-11T10:08:34.844Z,36.00
2023-06-11T10:11:01.274Z,36.10
2023-06-11T10:13:27.679Z,36.10
2023-06-11T10:15:54.154Z,36.10
2023-06-11T10:18:20.602Z,36.20
2023-06-11T10:20:47.088Z,36.30
2023-06-11T10:23:13.575Z,36.40
2023-06-11T10:25:40.020Z,36.40
2023-06-11T10:28:06.512Z,36.60
2023-06-11T10:30:32.938Z,36.70
2023-06-11T10:32:59.623Z,36.80
2023-06-11T10:35:26.450Z,36.70
2023-06-11T10:37:52.953Z,36.50
2023-06-11T10:40:21.110Z,36.70
2023-06-11T10:42:47.816Z,36.80
2023-06-11T10:45:14.312Z,37.00
2023-06-11T10:47:40.792Z,37.00
2023-06-11T10:50:07.327Z,37.10
2023-06-11T10:52:33.810Z,37.30
2023-06-11T10:55:00.251Z,37.40
2023-06-11T10:57:26.752Z,37.40
2023-06-11T10:59:53.541Z,37.30
2023-06-11T11:02:20.254Z,37.20
2023-06-11T11:04:46.828Z,37.00
2023-06-11T11:07:13.322Z,37.00
2023-06-11T11:09:39.823Z,37.10
2023-06-11T11:12:06.267Z,37.00
2023-06-11T11:14:32.695Z,37.00
2023-06-11T11:16:59.280Z,37.10
2023-06-11T11:19:25.797Z,37.30
2023-06-11T11:21:52.279Z,37.60
2023-06-11T11:24:18.893Z,38.00
2023-06-11T11:26:45.505Z,37.90
2023-06-11T11:29:11.992Z,37.60
2023-06-11T11:31:38.479Z,37.40
2023-06-11T11:34:04.958Z,37.20
2023-06-11T11:36:31.427Z,37.10
2023-06-11T11:38:57.865Z,36.60
2023-06-11T11:41:24.455Z,36.60
2023-06-11T11:43:50.950Z,36.50
2023-06-11T11:46:17.568Z,36.60
2023-06-11T11:48:44.092Z,36.60
2023-06-11T11:51:10.562Z,36.70
2023-06-11T11:53:37.083Z,36.40
2023-06-11T11:56:06.479Z,36.40
2023-06-11T11:58:33.563Z,36.70
2023-06-11T12:01:00.016Z,36.70
2023-06-11T12:03:26.576Z,36.50
2023-06-11T12:05:53.315Z,36.60
2023-06-11T12:08:19.966Z,36.90
2023-06-11T12:10:46.436Z,36.90
2023-06-11T12:13:12.918Z,37.00
2023-06-11T12:15:39.345Z,37.20
2023-06-11T12:18:05.909Z,37.60
2023-06-11T12:20:32.437Z,37.90
2023-06-11T12:22:58.903Z,37.90
2023-06-11T12:25:25.418Z,37.80
2023-06-11T12:27:51.965Z,37.70
2023-06-11T12:30:18.388Z,37.50
2023-06-11T12:32:44.894Z,37.50
2023-06-11T12:35:11.388Z,37.20
2023-06-11T12:37:37.846Z,36.70
2023-06-11T12:40:04.312Z,36.60
2023-06-11T12:42:30.810Z,37.00
2023-06-11T12:44:57.532Z,37.30
2023-06-11T12:47:24.049Z,37.50
2023-06-11T12:49:50.513Z,37.70
2023-06-11T12:52:16.988Z,37.90
2023-06-11T12:54:43.402Z,38.00
2023-06-11T12:57:09.865Z,38.00
2023-06-11T12:59:36.350Z,37.90
2023-06-11T13:02:02.855Z,37.80
2023-06-11T13:04:29.373Z,37.40
2023-06-11T13:06:55.887Z,37.20
2023-06-11T13:09:22.369Z,37.40
2023-06-11T13:11:48.894Z,37.80
2023-06-11T13:14:18.140Z,38.40
2023-06-11T13:16:45.513Z,38.80
2023-06-11T13:19:11.954Z,38.80
2023-06-11T13:21:38.429Z,38.50
2023-06-11T13:24:04.946Z,38.30
2023-06-11T13:26:31.418Z,38.20
2023-06-11T13:28:57.930Z,37.90
2023-06-11T13:31:24.589Z,37.90
2023-06-11T13:33:51.095Z,37.90
2023-06-11T13:36:17.624Z,38.00
2023-06-11T13:38:44.088Z,38.30
2023-06-11T13:41:10.704Z,38.50
2023-06-11T13:43:37.166Z,38.50
2023-06-11T13:46:03.585Z,38.30
2023-06-11T13:48:30.089Z,38.10
2023-06-11T13:50:56.549Z,38.10
2023-06-11T13:53:23.056Z,38.20
2023-06-11T13:55:49.890Z,38.20
2023-06-11T13:58:16.332Z,37.90
2023-06-11T14:00:42.809Z,38.10
2023-06-11T14:03:09.375Z,38.20
2023-06-11T14:05:35.891Z,38.20
2023-06-11T14:08:02.355Z,38.50
2023-06-11T14:10:28.833Z,38.40
2023-06-11T14:12:55.548Z,38.10
2023-06-11T14:15:22.062Z,38.10
2023-06-11T14:17:48.690Z,38.20
2023-06-11T14:20:17.713Z,38.40
2023-06-11T14:22:44.647Z,38.20
2023-06-11T14:25:11.136Z,37.60
2023-06-11T14:27:37.610Z,37.00
2023-06-11T14:30:04.100Z,36.60
2023-06-11T14:32:30.778Z,36.60
2023-06-11T14:34:57.327Z,36.80
2023-06-11T14:37:23.809Z,37.10
2023-06-11T14:39:50.455Z,37.20
2023-06-11T14:42:16.937Z,37.00
2023-06-11T14:44:43.433Z,37.20
2023-06-11T14:47:10.048Z,37.20
2023-06-11T14:49:36.511Z,37.10
2023-06-11T14:52:03.010Z,37.10
2023-06-11T14:54:29.472Z,37.10
2023-06-11T14:56:55.982Z,37.00
2023-06-11T14:59:22.506Z,36.80
2023-06-11T15:01:49.072Z,36.90
2023-06-11T15:04:15.699Z,37.00
2023-06-11T15:06:42.394Z,37.10
2023-06-11T15:09:08.956Z,37.10
2023-06-11T15:11:35.417Z,37.10
2023-06-11T15:14:01.881Z,37.10
2023-06-11T15:16:28.470Z,37.30
2023-06-11T15:18:54.993Z,37.60
2023-06-11T15:21:21.644Z,37.60
2023-06-11T15:23:48.153Z,37.40
2023-06-11T15:26:14.685Z,37.00
2023-06-11T15:28:41.264Z,37.00
2023-06-11T15:31:07.784Z,36.90
2023-06-11T15:33:34.258Z,37.00
2023-06-11T15:36:00.737Z,37.00
2023-06-11T15:38:28.687Z,37.20
2023-06-11T15:40:55.500Z,37.20
2023-06-11T15:43:22.050Z,37.00
2023-06-11T15:45:48.560Z,36.80
2023-06-11T15:48:15.093Z,36.70
2023-06-11T15:50:41.592Z,36.50
2023-06-11T15:53:08.127Z,36.30
2023-06-11T15:55:34.635Z,36.20
2023-06-11T15:58:01.083Z,36.20
2023-06-11T16:00:27.504Z,36.30
2023-06-11T16:02:53.998Z,36.40
2023-06-11T16:05:20.523Z,36.40
2023-06-11T16:07:46.977Z,36.30
2023-06-11T16:10:14.768Z,36.10
2023-06-11T16:12:41.621Z,36.10
2023-06-11T16:15:08.101Z,35.90
2023-06-11T16:17:34.633Z,35.80
2023-06-11T16:20:01.173Z,35.80
2023-06-11T16:22:27.735Z,35.70
2023-06-11T16:24:54.229Z,35.70
2023-06-11T16:27:20.724Z,35.60
2023-06-11T16:29:47.207Z,35.60
2023-06-11T16:32:13.662Z,35.50
2023-06-11T16:34:40.168Z,35.50
2023-06-11T16:37:06.680Z,35.50
2023-06-11T16:39:33.102Z,35.50
2023-06-11T16:41:59.589Z,35.40
2023-06-11T16:44:26.057Z,35.30
2023-06-11T16:46:52.572Z,35.30
2023-06-11T16:49:19.053Z,35.20
2023-06-11T16:51:45.532Z,35.10
2023-06-11T16:54:12.546Z,35.00
2023-06-11T16:56:39.412Z,34.80
2023-06-11T16:59:05.861Z,34.60
2023-06-11T17:01:32.498Z,34.60
2023-06-11T17:03:59.161Z,34.50
2023-06-11T17:06:25.693Z,34.60
2023-06-11T17:08:52.149Z,34.50
2023-06-11T17:11:18.577Z,34.40
2023-06-11T17:13:44.994Z,34.40
2023-06-11T17:16:11.471Z,34.20
2023-06-11T17:18:37.973Z,34.10
2023-06-11T17:21:04.496Z,33.90
2023-06-11T17:23:31.152Z,33.90
2023-06-11T17:25:57.651Z,33.80
2023-06-11T17:28:24.108Z,33.70
2023-06-11T17:30:50.541Z,33.70
2023-06-11T17:33:17.012Z,33.60
2023-06-11T17:35:43.531Z,33.60
2023-06-11T17:38:09.969Z,33.60
2023-06-11T17:40:36.408Z,33.50
2023-06-11T17:43:02.885Z,33.40
2023-06-11T17:45:29.400Z,33.30
2023-06-11T17:47:55.896Z,33.20
2023-06-11T17:50:22.441Z,33.00
2023-06-11T17:52:48.958Z,32.80
2023-06-11T17:55:15.515Z,32.60
2023-06-11T17:57:42.023Z,32.60
2023-06-11T18:00:08.695Z,32.40
2023-06-11T18:02:35.391Z,32.30
2023-06-11T18:05:01.940Z,32.20
2023-06-11T18:07:28.412Z,32.10
2023-06-11T18:09:54.864Z,32.00
2023-06-11T18:12:21.308Z,32.00
2023-06-11T18:14:47.785Z,31.80
2023-06-11T18:17:14.264Z,31.90
2023-06-11T18:19:40.767Z,31.80
2023-06-11T18:22:07.232Z,31.60
2023-06-11T18:24:33.766Z,31.50
2023-06-11T18:27:00.303Z,31.50
2023-06-11T18:29:28.447Z,31.40
2023-06-11T18:31:55.645Z,31.30
2023-06-11T18:34:22.178Z,31.30
2023-06-11T18:36:48.673Z,31.20
2023-06-11T18:39:15.103Z,31.00
2023-06-11T18:41:41.567Z,31.00
2023-06-11T18:44:08.050Z,30.80
2023-06-11T18:46:35.467Z,30.80
2023-06-11T18:49:03.500Z,30.60
2023-06-11T18:51:29.963Z,30.50
2023-06-11T18:53:56.430Z,30.40
2023-06-11T18:56:22.979Z,30.30
2023-06-11T18:58:49.497Z,30.20
2023-06-11T19:01:16.025Z,30.10
2023-06-11T19:03:44.794Z,29.90
2023-06-11T19:06:11.768Z,29.80
2023-06-11T19:08:38.259Z,29.80
2023-06-11T19:11:04.728Z,29.70
2023-06-11T19:13:31.186Z,29.60
2023-06-11T19:15:57.674Z,29.50
2023-06-11T19:18:24.095Z,29.50
2023-06-11T19:20:50.567Z,29.40
2023-06-11T19:23:17.054Z,29.30
2023-06-11T19:25:43.522Z,29.20
2023-06-11T19:28:10.045Z,29.10
2023-06-11T19:30:36.640Z,29.10
2023-06-11T19:33:03.240Z,29.00
2023-06-11T19:35:29.881Z,29.00
2023-06-11T19:37:56.426Z,28.90
2023-06-11T19:40:22.874Z,28.90
2023-06-11T19:42:49.427Z,28.80
2023-06-11T19:45:15.869Z,28.70
2023-06-11T19:47:42.393Z,28.60
2023-06-11T19:50:09.065Z,28.50
2023-06-11T19:52:35.689Z,28.50
2023-06-11T19:55:02.119Z,28.40
2023-06-11T19:57:28.766Z,28.30
2023-06-11T19:59:55.413Z,28.20
2023-06-11T20:02:21.941Z,28.20
2023-06-11T20:04:48.458Z,28.20
2023-06-11T20:07:14.957Z,28.20
2023-06-11T20:09:41.387Z,28.10
2023-06-11T20:12:07.979Z,28.10
2023-06-11T20:14:34.604Z,28.10
2023-06-11T20:17:01.118Z,28.10
2023-06-11T20:19:27.574Z,28.10
2023-06-11T20:21:54.048Z,28.00
2023-06-11T20:24:20.669Z,28.00
2023-06-11T20:26:47.235Z,27.80
2023-06-11T20:29:13.674Z,27.80
2023-06-11T20:31:40.223Z,27.70
2023-06-11T20:34:06.787Z,27.60
2023-06-11T20:36:33.275Z,27.50
2023-06-11T20:38:59.741Z,27.50
2023-06-11T20:41:26.180Z,27.50
2023-06-11T20:43:52.650Z,27.50
2023-06-11T20:46:29.306Z,27.40
2023-06-11T20:48:56.325Z,27.40
2023-06-11T20:51:22.873Z,27.30
2023-06-11T20:53:49.468Z,27.20
2023-06-11T20:56:15.951Z,27.20
2023-06-11T20:58:42.473Z,27.10
2023-06-11T21:01:09.009Z,27.00
2023-06-11T21:03:35.575Z,27.00
2023-06-11T21:06:02.076Z,26.90
2023-06-11T21:08:28.592Z,26.80
2023-06-11T21:10:55.023Z,26.70
2023-06-11T21:13:21.514Z,26.70
2023-06-11T21:15:47.993Z,26.60
2023-06-11T21:18:14.552Z,26.60
2023-06-11T21:20:41.097Z,26.50
2023-06-11T21:23:07.693Z,26.50
2023-06-11T21:25:37.749Z,26.50
2023-06-11T21:28:04.227Z,26.50
2023-06-11T21:30:30.665Z,26.40
2023-06-11T21:32:57.175Z,26.40
2023-06-11T21:35:23.963Z,26.40
2023-06-11T21:37:50.461Z,26.30
2023-06-11T21:40:16.969Z,26.20
2023-06-11T21:42:43.695Z,26.20
2023-06-11T21:45:10.214Z,26.10
2023-06-11T21:47:36.701Z,26.00
2023-06-11T21:50:03.171Z,26.00
2023-06-11T21:52:29.648Z,25.90
2023-06-11T21:54:56.105Z,25.80
2023-06-11T21:57:22.576Z,25.80
2023-06-11T21:59:49.176Z,25.80
2023-06-11T22:02:15.768Z,25.70
2023-06-11T22:04:42.247Z,25.70
2023-06-11T22:07:08.700Z,25.70
2023-06-11T22:09:35.198Z,25.70
2023-06-11T22:12:01.659Z,25.60
2023-06-11T22:14:28.149Z,25.60
2023-06-11T22:16:54.900Z,25.60
2023-06-11T22:19:21.413Z,25.50
2023-06-11T22:21:47.889Z,25.50
2023-06-11T22:24:14.412Z,25.40
2023-06-11T22:26:40.958Z,25.40
2023-06-11T22:29:07.463Z,25.40
2023-06-11T22:31:33.990Z,25.30
2023-06-11T22:34:00.531Z,25.30
2023-06-11T22:36:26.961Z,25.30
2023-06-11T22:38:53.394Z,25.30
2023-06-11T22:41:20.052Z,25.30
2023-06-11T22:43:46.506Z,25.30
2023-06-11T22:46:12.975Z,25.30
2023-06-11T22:48:39.485Z,25.30
2023-06-11T22:51:05.927Z,25.20
2023-06-11T22:53:32.406Z,25.20
2023-06-11T22:55:58.853Z,25.20
2023-06-11T22:58:25.536Z,25.20
2023-06-11T23:00:52.038Z,25.10
2023-06-11T23:03:18.622Z,25.10
2023-06-11T23:05:45.170Z,25.10
2023-06-11T23:08:11.622Z,25.10
2023-06-11T23:10:38.056Z,25.00
2023-06-11T23:13:04.496Z,25.00
2023-06-11T23:15:30.974Z,24.90
2023-06-11T23:17:57.495Z,24.90
2023-06-11T23:20:24.000Z,24.90
2023-06-11T23:22:50.498Z,24.80
2023-06-11T23:25:16.962Z,24.80
2023-06-11T23:27:43.428Z,24.80
2023-06-11T23:30:10.107Z,24.70
2023-06-11T23:32:36.731Z,24.70
2023-06-11T23:35:03.233Z,24.70
2023-06-11T23:37:29.725Z,24.60
2023-06-11T23:39:56.238Z,24.60
2023-06-11T23:42:22.702Z,24.50
2023-06-11T23:44:49.393Z,24.40
2023-06-11T23:47:15.832Z,24.40
2023-06-11T23:49:42.276Z,24.30
2023-06-11T23:52:08.740Z,24.30
2023-06-11T23:54:35.215Z,24.30
2023-06-11T23:57:01.694Z,24.20
2023-06-11T23:59:28.188Z,24.20
